Almo, Idaho
Current Conditions -  °F | °C
As of 5:53 AM on Sunday 23 Nov 2014 (Local Time) from KBYI Reporting Station
Unknown Precip Unknown Precip  
Wind Chill: 18°   Ceiling: Unl
Heat Index: 31°   Visibility: 10mi
Dew Point: 24°   Wind: 22mph
Humidity: 76%   Direction: 270°W
Pressure: 30.1"   Gusts: 35mph
Location:  42.1°N, 113.64°W
Report Text: KBYI 231253Z AUTO 27019G30KT 10SM UP CLR M01/M04 A3010 RMK AO2 PK WND 27032/1232 UPB15SNB50E51 SLP206 P0000 T10061044
Loading
Personal Weather Stations






























Interactive Weather Map New forecast layout! Learn more

10-Day Weather Forecast

Advertisements
Track Severe Weather on mobile